sensor_id;sensor_type;location;lat;lon;timestamp;temperature;humidity
70734;DHT22;58320;48.804;9.252;2024-01-15T00:02:06;-1.30;72.40
70734;DHT22;58320;48.804;9.252;2024-01-15T00:04:37;-1.30;72.50
70734;DHT22;58320;48.804;9.252;2024-01-15T00:07:04;-1.30;72.70
70734;DHT22;58320;48.804;9.252;2024-01-15T00:09:30;-1.40;72.90
70734;DHT22;58320;48.804;9.252;2024-01-15T00:11:55;-1.50;73.30
70734;DHT22;58320;48.804;9.252;2024-01-15T00:14:22;-1.50;73.40
70734;DHT22;58320;48.804;9.252;2024-01-15T00:16:48;-1.60;73.70
70734;DHT22;58320;48.804;9.252;2024-01-15T00:19:16;-1.60;73.90
70734;DHT22;58320;48.804;9.252;2024-01-15T00:21:41;-1.60;74.00
70734;DHT22;58320;48.804;9.252;2024-01-15T00:24:08;-1.60;74.10
70734;DHT22;58320;48.804;9.252;2024-01-15T00:26:33;-1.70;74.20
70734;DHT22;58320;48.804;9.252;2024-01-15T00:28:59;-1.70;74.40
70734;DHT22;58320;48.804;9.252;2024-01-15T00:31:25;-1.80;74.60
70734;DHT22;58320;48.804;9.252;2024-01-15T00:33:51;-1.90;74.70
70734;DHT22;58320;48.804;9.252;2024-01-15T00:36:17;-1.90;75.10
70734;DHT22;58320;48.804;9.252;2024-01-15T00:38:46;-2.00;75.50
70734;DHT22;58320;48.804;9.252;2024-01-15T00:41:13;-2.10;76.00
70734;DHT22;58320;48.804;9.252;2024-01-15T00:43:39;-2.10;76.10
70734;DHT22;58320;48.804;9.252;2024-01-15T00:46:05;-2.10;76.30
70734;DHT22;58320;48.804;9.252;2024-01-15T00:48:31;-2.20;76.40
70734;DHT22;58320;48.804;9.252;2024-01-15T00:50:57;-2.20;76.60
70734;DHT22;58320;48.804;9.252;2024-01-15T00:53:23;-2.30;76.90
70734;DHT22;58320;48.804;9.252;2024-01-15T00:55:49;-2.20;77.10
70734;DHT22;58320;48.804;9.252;2024-01-15T00:58:15;-2.20;77.00
70734;DHT22;58320;48.804;9.252;2024-01-15T01:00:41;-2.20;76.90
70734;DHT22;58320;48.804;9.252;2024-01-15T01:03:07;-2.10;76.80
70734;DHT22;58320;48.804;9.252;2024-01-15T01:05:36;-2.00;76.70
70734;DHT22;58320;48.804;9.252;2024-01-15T01:08:03;-2.00;76.60
70734;DHT22;58320;48.804;9.252;2024-01-15T01:10:29;-2.00;76.60
70734;DHT22;58320;48.804;9.252;2024-01-15T01:12:54;-2.00;76.60
70734;DHT22;58320;48.804;9.252;2024-01-15T01:15:20;-1.90;76.60
70734;DHT22;58320;48.804;9.252;2024-01-15T01:17:46;-1.90;76.50
70734;DHT22;58320;48.804;9.252;2024-01-15T01:20:12;-1.80;76.40
70734;DHT22;58320;48.804;9.252;2024-01-15T01:22:39;-1.70;76.30
70734;DHT22;58320;48.804;9.252;2024-01-15T01:25:05;-1.70;76.20
70734;DHT22;58320;48.804;9.252;2024-01-15T01:27:31;-1.70;76.20
70734;DHT22;58320;48.804;9.252;2024-01-15T01:29:57;-1.60;76.10
70734;DHT22;58320;48.804;9.252;2024-01-15T01:32:22;-1.50;76.10
70734;DHT22;58320;48.804;9.252;2024-01-15T01:34:48;-1.50;76.00
70734;DHT22;58320;48.804;9.252;2024-01-15T01:37:14;-1.40;76.00
70734;DHT22;58320;48.804;9.252;2024-01-15T01:39:41;-1.40;76.00
70734;DHT22;58320;48.804;9.252;2024-01-15T01:42:07;-1.40;76.10
70734;DHT22;58320;48.804;9.252;2024-01-15T01:44:33;-1.40;76.00
70734;DHT22;58320;48.804;9.252;2024-01-15T01:47:00;-1.40;76.00
70734;DHT22;58320;48.804;9.252;2024-01-15T01:49:29;-1.40;76.00
70734;DHT22;58320;48.804;9.252;2024-01-15T01:52:00;-1.30;76.00
70734;DHT22;58320;48.804;9.252;2024-01-15T01:54:29;-1.30;75.90
70734;DHT22;58320;48.804;9.252;2024-01-15T01:56:56;-1.20;75.80
70734;DHT22;58320;48.804;9.252;2024-01-15T01:59:23;-1.20;75.60
70734;DHT22;58320;48.804;9.252;2024-01-15T02:01:51;-1.20;75.60
70734;DHT22;58320;48.804;9.252;2024-01-15T02:04:17;-1.20;75.50
70734;DHT22;58320;48.804;9.252;2024-01-15T02:06:43;-1.20;75.50
70734;DHT22;58320;48.804;9.252;2024-01-15T02:09:09;-1.10;75.40
70734;DHT22;58320;48.804;9.252;2024-01-15T02:11:36;-1.10;75.30
70734;DHT22;58320;48.804;9.252;2024-01-15T02:14:02;-1.00;75.10
70734;DHT22;58320;48.804;9.252;2024-01-15T02:16:28;-1.00;75.10
70734;DHT22;58320;48.804;9.252;2024-01-15T02:18:54;-1.00;75.00
70734;DHT22;58320;48.804;9.252;2024-01-15T02:21:19;-1.00;75.20
70734;DHT22;58320;48.804;9.252;2024-01-15T02:23:45;-1.10;75.30
70734;DHT22;58320;48.804;9.252;2024-01-15T02:26:11;-1.10;75.30
70734;DHT22;58320;48.804;9.252;2024-01-15T02:28:37;-1.10;75.50
70734;DHT22;58320;48.804;9.252;2024-01-15T02:31:03;-1.10;75.60
70734;DHT22;58320;48.804;9.252;2024-01-15T02:33:29;-1.10;75.70
70734;DHT22;58320;48.804;9.252;2024-01-15T02:35:54;-1.10;75.80
70734;DHT22;58320;48.804;9.252;2024-01-15T02:38:20;-1.20;75.90
70734;DHT22;58320;48.804;9.252;2024-01-15T02:40:47;-1.20;76.10
70734;DHT22;58320;48.804;9.252;2024-01-15T02:43:12;-1.20;76.10
70734;DHT22;58320;48.804;9.252;2024-01-15T02:45:39;-1.30;76.40
70734;DHT22;58320;48.804;9.252;2024-01-15T02:48:05;-1.40;76.60
70734;DHT22;58320;48.804;9.252;2024-01-15T02:50:31;-1.40;76.90
70734;DHT22;58320;48.804;9.252;2024-01-15T02:52:57;-1.50;77.20
70734;DHT22;58320;48.804;9.252;2024-01-15T02:55:22;-1.50;77.60
70734;DHT22;58320;48.804;9.252;2024-01-15T02:57:48;-1.50;77.70
70734;DHT22;58320;48.804;9.252;2024-01-15T03:00:14;-1.50;77.70
70734;DHT22;58320;48.804;9.252;2024-01-15T03:02:40;-1.60;77.80
70734;DHT22;58320;48.804;9.252;2024-01-15T03:05:11;-1.50;78.00
70734;DHT22;58320;48.804;9.252;2024-01-15T03:07:37;-1.50;77.80
70734;DHT22;58320;48.804;9.252;2024-01-15T03:10:04;-1.50;77.80
70734;DHT22;58320;48.804;9.252;2024-01-15T03:12:30;-1.50;77.80
70734;DHT22;58320;48.804;9.252;2024-01-15T03:14:56;-1.50;77.80
70734;DHT22;58320;48.804;9.252;2024-01-15T03:17:21;-1.50;78.00
70734;DHT22;58320;48.804;9.252;2024-01-15T03:19:47;-1.60;77.90
70734;DHT22;58320;48.804;9.252;2024-01-15T03:22:15;-1.60;78.00
70734;DHT22;58320;48.804;9.252;2024-01-15T03:24:41;-1.60;78.10
70734;DHT22;58320;48.804;9.252;2024-01-15T03:27:07;-1.60;78.20
70734;DHT22;58320;48.804;9.252;2024-01-15T03:29:33;-1.60;78.20
70734;DHT22;58320;48.804;9.252;2024-01-15T03:31:59;-1.60;78.20
70734;DHT22;58320;48.804;9.252;2024-01-15T03:34:24;-1.60;78.30
70734;DHT22;58320;48.804;9.252;2024-01-15T03:36:50;-1.60;78.30
70734;DHT22;58320;48.804;9.252;2024-01-15T03:39:16;-1.60;78.40
70734;DHT22;58320;48.804;9.252;2024-01-15T03:41:41;-1.60;78.50
70734;DHT22;58320;48.804;9.252;2024-01-15T03:44:07;-1.60;78.60
70734;DHT22;58320;48.804;9.252;2024-01-15T03:46:33;-1.60;78.50
70734;DHT22;58320;48.804;9.252;2024-01-15T03:48:58;-1.70;78.70
70734;DHT22;58320;48.804;9.252;2024-01-15T03:51:24;-1.70;78.90
70734;DHT22;58320;48.804;9.252;2024-01-15T03:53:50;-1.70;79.00
70734;DHT22;58320;48.804;9.252;2024-01-15T03:56:16;-1.60;78.80
70734;DHT22;58320;48.804;9.252;2024-01-15T03:58:42;-1.60;78.60
70734;DHT22;58320;48.804;9.252;2024-01-15T04:04:07;-1.30;78.30
70734;DHT22;58320;48.804;9.252;2024-01-15T04:06:32;-1.50;78.00
70734;DHT22;58320;48.804;9.252;2024-01-15T04:08:58;-1.40;77.90
70734;DHT22;58320;48.804;9.252;2024-01-15T04:11:24;-1.40;78.00
70734;DHT22;58320;48.804;9.252;2024-01-15T04:13:50;-1.40;78.00
70734;DHT22;58320;48.804;9.252;2024-01-15T04:16:15;-1.30;78.00
70734;DHT22;58320;48.804;9.252;2024-01-15T04:18:41;-1.30;77.90
70734;DHT22;58320;48.804;9.252;2024-01-15T04:21:07;-1.30;77.70
70734;DHT22;58320;48.804;9.252;2024-01-15T04:23:33;-1.30;77.70
70734;DHT22;58320;48.804;9.252;2024-01-15T04:25:58;-1.30;77.80
70734;DHT22;58320;48.804;9.252;2024-01-15T04:28:24;-1.30;77.90
70734;DHT22;58320;48.804;9.252;2024-01-15T04:30:50;-1.20;77.90
70734;DHT22;58320;48.804;9.252;2024-01-15T04:33:16;-1.20;77.90
70734;DHT22;58320;48.804;9.252;2024-01-15T04:35:41;-1.20;77.70
70734;DHT22;58320;48.804;9.252;2024-01-15T04:38:07;-1.20;77.60
70734;DHT22;58320;48.804;9.252;2024-01-15T04:40:33;-1.10;77.50
70734;DHT22;58320;48.804;9.252;2024-01-15T04:42:58;-1.10;77.40
70734;DHT22;58320;48.804;9.252;2024-01-15T04:45:24;-1.00;76.90
70734;DHT22;58320;48.804;9.252;2024-01-15T04:47:54;-1.00;77.00
70734;DHT22;58320;48.804;9.252;2024-01-15T04:50:22;-0.90;76.80
70734;DHT22;58320;48.804;9.252;2024-01-15T04:52:47;-0.80;76.40
70734;DHT22;58320;48.804;9.252;2024-01-15T04:55:13;-0.80;76.30
70734;DHT22;58320;48.804;9.252;2024-01-15T04:57:39;-0.80;76.20
70734;DHT22;58320;48.804;9.252;2024-01-15T05:00:05;-0.70;76.00
70734;DHT22;58320;48.804;9.252;2024-01-15T05:02:31;-0.70;75.90
70734;DHT22;58320;48.804;9.252;2024-01-15T05:04:57;-0.60;75.70
70734;DHT22;58320;48.804;9.252;2024-01-15T05:07:22;-0.50;75.40
70734;DHT22;58320;48.804;9.252;2024-01-15T05:09:48;-0.50;75.20
70734;DHT22;58320;48.804;9.252;2024-01-15T05:12:14;-0.40;75.10
70734;DHT22;58320;48.804;9.252;2024-01-15T05:14:39;-0.30;74.60
70734;DHT22;58320;48.804;9.252;2024-01-15T05:17:05;-0.20;74.30
70734;DHT22;58320;48.804;9.252;2024-01-15T05:19:31;-0.20;74.30
70734;DHT22;58320;48.804;9.252;2024-01-15T05:21:56;-0.10;74.20
70734;DHT22;58320;48.804;9.252;2024-01-15T05:24:22;-0.10;74.10
70734;DHT22;58320;48.804;9.252;2024-01-15T05:26:48;-0.10;73.80
70734;DHT22;58320;48.804;9.252;2024-01-15T05:29:13;-0.10;73.60
70734;DHT22;58320;48.804;9.252;2024-01-15T05:31:39;0.00;73.50
70734;DHT22;58320;48.804;9.252;2024-01-15T05:34:05;0.00;73.50
70734;DHT22;58320;48.804;9.252;2024-01-15T05:36:31;0.00;73.60
70734;DHT22;58320;48.804;9.252;2024-01-15T05:38:56;0.00;73.70
70734;DHT22;58320;48.804;9.252;2024-01-15T05:41:22;0.00;74.00
70734;DHT22;58320;48.804;9.252;2024-01-15T05:43:48;0.00;74.10
70734;DHT22;58320;48.804;9.252;2024-01-15T05:46:13;0.00;74.20
70734;DHT22;58320;48.804;9.252;2024-01-15T05:48:40;0.00;74.20
70734;DHT22;58320;48.804;9.252;2024-01-15T05:51:06;0.00;74.00
70734;DHT22;58320;48.804;9.252;2024-01-15T05:53:32;0.00;74.00
70734;DHT22;58320;48.804;9.252;2024-01-15T05:55:57;0.00;73.60
70734;DHT22;58320;48.804;9.252;2024-01-15T05:58:23;0.10;73.50
70734;DHT22;58320;48.804;9.252;2024-01-15T06:00:49;0.10;73.40
70734;DHT22;58320;48.804;9.252;2024-01-15T06:03:15;0.10;73.20
70734;DHT22;58320;48.804;9.252;2024-01-15T06:05:41;0.10;73.00
70734;DHT22;58320;48.804;9.252;2024-01-15T06:08:06;0.10;73.00
70734;DHT22;58320;48.804;9.252;2024-01-15T06:10:32;0.20;73.10
70734;DHT22;58320;48.804;9.252;2024-01-15T06:12:58;0.10;73.10
70734;DHT22;58320;48.804;9.252;2024-01-15T06:15:24;0.10;73.10
70734;DHT22;58320;48.804;9.252;2024-01-15T06:17:50;0.10;72.80
70734;DHT22;58320;48.804;9.252;2024-01-15T06:20:15;0.10;72.70
70734;DHT22;58320;48.804;9.252;2024-01-15T06:22:41;0.10;72.90
70734;DHT22;58320;48.804;9.252;2024-01-15T06:25:08;0.10;72.90
70734;DHT22;58320;48.804;9.252;2024-01-15T06:27:34;0.10;72.70
70734;DHT22;58320;48.804;9.252;2024-01-15T06:29:59;0.10;72.80
70734;DHT22;58320;48.804;9.252;2024-01-15T06:32:25;0.10;72.90
70734;DHT22;58320;48.804;9.252;2024-01-15T06:34:51;0.10;72.70
70734;DHT22;58320;48.804;9.252;2024-01-15T06:37:16;0.10;72.60
70734;DHT22;58320;48.804;9.252;2024-01-15T06:39:44;0.10;72.60
70734;DHT22;58320;48.804;9.252;2024-01-15T06:42:10;0.10;72.60
70734;DHT22;58320;48.804;9.252;2024-01-15T06:44:35;0.10;72.50
70734;DHT22;58320;48.804;9.252;2024-01-15T06:47:01;0.10;72.40
70734;DHT22;58320;48.804;9.252;2024-01-15T06:49:31;0.10;72.50
70734;DHT22;58320;48.804;9.252;2024-01-15T06:51:56;0.10;72.70
70734;DHT22;58320;48.804;9.252;2024-01-15T06:54:22;0.10;72.70
70734;DHT22;58320;48.804;9.252;2024-01-15T06:56:49;0.10;72.90
70734;DHT22;58320;48.804;9.252;2024-01-15T06:59:15;0.10;72.80
70734;DHT22;58320;48.804;9.252;2024-01-15T07:01:41;0.10;72.90
70734;DHT22;58320;48.804;9.252;2024-01-15T07:04:06;0.10;72.80
70734;DHT22;58320;48.804;9.252;2024-01-15T07:06:33;0.10;72.90
70734;DHT22;58320;48.804;9.252;2024-01-15T07:08:59;0.10;72.80
70734;DHT22;58320;48.804;9.252;2024-01-15T07:11:25;0.10;72.90
70734;DHT22;58320;48.804;9.252;2024-01-15T07:13:50;0.10;72.60
70734;DHT22;58320;48.804;9.252;2024-01-15T07:16:16;0.20;72.40
70734;DHT22;58320;48.804;9.252;2024-01-15T07:18:42;0.20;72.40
70734;DHT22;58320;48.804;9.252;2024-01-15T07:21:08;0.20;72.10
70734;DHT22;58320;48.804;9.252;2024-01-15T07:23:33;0.20;72.00
70734;DHT22;58320;48.804;9.252;2024-01-15T07:25:59;0.30;71.70
70734;DHT22;58320;48.804;9.252;2024-01-15T07:28:25;0.30;71.80
70734;DHT22;58320;48.804;9.252;2024-01-15T07:30:51;0.30;71.70
70734;DHT22;58320;48.804;9.252;2024-01-15T07:33:17;0.30;71.80
70734;DHT22;58320;48.804;9.252;2024-01-15T07:35:43;0.30;71.50
70734;DHT22;58320;48.804;9.252;2024-01-15T07:38:09;0.40;71.00
70734;DHT22;58320;48.804;9.252;2024-01-15T07:40:35;0.40;70.50
70734;DHT22;58320;48.804;9.252;2024-01-15T07:43:02;0.40;70.20
70734;DHT22;58320;48.804;9.252;2024-01-15T07:45:28;0.40;70.20
70734;DHT22;58320;48.804;9.252;2024-01-15T07:47:53;0.40;70.00
70734;DHT22;58320;48.804;9.252;2024-01-15T07:50:19;0.50;69.90
70734;DHT22;58320;48.804;9.252;2024-01-15T07:52:45;0.50;69.80
70734;DHT22;58320;48.804;9.252;2024-01-15T07:55:10;0.50;69.80
70734;DHT22;58320;48.804;9.252;2024-01-15T07:57:36;0.50;69.60
70734;DHT22;58320;48.804;9.252;2024-01-15T08:00:05;0.50;69.60
70734;DHT22;58320;48.804;9.252;2024-01-15T08:02:31;0.50;69.10
70734;DHT22;58320;48.804;9.252;2024-01-15T08:04:58;0.50;68.80
70734;DHT22;58320;48.804;9.252;2024-01-15T08:07:24;0.60;68.50
70734;DHT22;58320;48.804;9.252;2024-01-15T08:09:51;0.60;68.80
70734;DHT22;58320;48.804;9.252;2024-01-15T08:12:18;0.60;68.20
70734;DHT22;58320;48.804;9.252;2024-01-15T08:14:43;0.60;68.00
70734;DHT22;58320;48.804;9.252;2024-01-15T08:17:09;0.70;68.00
70734;DHT22;58320;48.804;9.252;2024-01-15T08:19:35;0.70;67.50
70734;DHT22;58320;48.804;9.252;2024-01-15T08:22:01;0.70;67.30
70734;DHT22;58320;48.804;9.252;2024-01-15T08:24:26;0.70;67.30
70734;DHT22;58320;48.804;9.252;2024-01-15T08:26:52;0.70;67.20
70734;DHT22;58320;48.804;9.252;2024-01-15T08:29:18;0.80;66.50
70734;DHT22;58320;48.804;9.252;2024-01-15T08:31:46;0.80;66.40
70734;DHT22;58320;48.804;9.252;2024-01-15T08:34:12;0.80;66.50
70734;DHT22;58320;48.804;9.252;2024-01-15T08:36:37;0.90;66.60
70734;DHT22;58320;48.804;9.252;2024-01-15T08:39:03;0.90;66.20
70734;DHT22;58320;48.804;9.252;2024-01-15T08:41:31;0.90;66.00
70734;DHT22;58320;48.804;9.252;2024-01-15T08:43:58;0.90;65.70
70734;DHT22;58320;48.804;9.252;2024-01-15T08:46:24;1.00;65.80
70734;DHT22;58320;48.804;9.252;2024-01-15T08:48:50;1.00;65.80
70734;DHT22;58320;48.804;9.252;2024-01-15T08:51:16;1.00;65.10
70734;DHT22;58320;48.804;9.252;2024-01-15T08:53:43;1.10;65.30
70734;DHT22;58320;48.804;9.252;2024-01-15T08:56:09;1.10;65.10
70734;DHT22;58320;48.804;9.252;2024-01-15T08:58:35;1.10;65.10
70734;DHT22;58320;48.804;9.252;2024-01-15T09:01:01;1.20;64.90
70734;DHT22;58320;48.804;9.252;2024-01-15T09:03:26;1.20;65.00
70734;DHT22;58320;48.804;9.252;2024-01-15T09:05:53;1.30;64.70
70734;DHT22;58320;48.804;9.252;2024-01-15T09:08:20;1.30;64.50
70734;DHT22;58320;48.804;9.252;2024-01-15T09:10:45;1.30;64.40
70734;DHT22;58320;48.804;9.252;2024-01-15T09:13:11;1.30;64.00
70734;DHT22;58320;48.804;9.252;2024-01-15T09:15:37;1.40;63.20
70734;DHT22;58320;48.804;9.252;2024-01-15T09:18:02;1.40;63.00
70734;DHT22;58320;48.804;9.252;2024-01-15T09:20:28;1.40;62.50
70734;DHT22;58320;48.804;9.252;2024-01-15T09:22:54;1.50;62.60
70734;DHT22;58320;48.804;9.252;2024-01-15T09:25:20;1.50;62.80
70734;DHT22;58320;48.804;9.252;2024-01-15T09:27:45;1.60;63.10
70734;DHT22;58320;48.804;9.252;2024-01-15T09:30:11;1.60;63.10
70734;DHT22;58320;48.804;9.252;2024-01-15T09:32:37;1.50;62.80
70734;DHT22;58320;48.804;9.252;2024-01-15T09:35:03;1.50;63.10
70734;DHT22;58320;48.804;9.252;2024-01-15T09:37:29;1.60;63.00
70734;DHT22;58320;48.804;9.252;2024-01-15T09:39:55;1.70;62.60
70734;DHT22;58320;48.804;9.252;2024-01-15T09:42:22;1.70;62.50
70734;DHT22;58320;48.804;9.252;2024-01-15T09:44:49;1.70;61.90
70734;DHT22;58320;48.804;9.252;2024-01-15T09:47:15;1.70;61.70
70734;DHT22;58320;48.804;9.252;2024-01-15T09:49:42;1.70;61.80
70734;DHT22;58320;48.804;9.252;2024-01-15T09:52:07;1.70;61.80
70734;DHT22;58320;48.804;9.252;2024-01-15T09:54:34;1.70;62.00
70734;DHT22;58320;48.804;9.252;2024-01-15T09:57:00;1.70;61.80
70734;DHT22;58320;48.804;9.252;2024-01-15T09:59:27;1.70;62.00
70734;DHT22;58320;48.804;9.252;2024-01-15T10:01:53;1.70;62.20
70734;DHT22;58320;48.804;9.252;2024-01-15T10:04:21;1.80;61.90
70734;DHT22;58320;48.804;9.252;2024-01-15T10:06:47;1.90;61.80
70734;DHT22;58320;48.804;9.252;2024-01-15T10:09:17;1.90;61.90
70734;DHT22;58320;48.804;9.252;2024-01-15T10:11:44;1.90;61.90
70734;DHT22;58320;48.804;9.252;2024-01-15T10:14:11;2.00;62.00
70734;DHT22;58320;48.804;9.252;2024-01-15T10:16:40;2.00;61.50
70734;DHT22;58320;48.804;9.252;2024-01-15T10:19:09;2.00;61.70
70734;DHT22;58320;48.804;9.252;2024-01-15T10:21:36;2.00;61.60
70734;DHT22;58320;48.804;9.252;2024-01-15T10:24:03;2.00;61.80
70734;DHT22;58320;48.804;9.252;2024-01-15T10:26:30;2.00;61.50
70734;DHT22;58320;48.804;9.252;2024-01-15T10:28:57;2.00;61.70
70734;DHT22;58320;48.804;9.252;2024-01-15T10:31:23;2.00;61.10
70734;DHT22;58320;48.804;9.252;2024-01-15T10:33:49;2.00;61.60
70734;DHT22;58320;48.804;9.252;2024-01-15T10:36:16;2.10;61.40
70734;DHT22;58320;48.804;9.252;2024-01-15T10:38:46;2.10;61.40
70734;DHT22;58320;48.804;9.252;2024-01-15T10:41:12;2.00;61.60
70734;DHT22;58320;48.804;9.252;2024-01-15T10:43:38;2.00;61.30
70734;DHT22;58320;48.804;9.252;2024-01-15T10:46:06;2.00;61.60
70734;DHT22;58320;48.804;9.252;2024-01-15T10:48:33;2.00;61.60
70734;DHT22;58320;48.804;9.252;2024-01-15T10:51:01;2.10;61.60
70734;DHT22;58320;48.804;9.252;2024-01-15T10:53:37;2.10;61.30
70734;DHT22;58320;48.804;9.252;2024-01-15T10:56:05;2.10;61.50
70734;DHT22;58320;48.804;9.252;2024-01-15T10:58:33;2.20;61.50
70734;DHT22;58320;48.804;9.252;2024-01-15T11:01:01;2.20;61.20
70734;DHT22;58320;48.804;9.252;2024-01-15T11:03:27;2.30;61.30
70734;DHT22;58320;48.804;9.252;2024-01-15T11:05:54;2.30;61.30
70734;DHT22;58320;48.804;9.252;2024-01-15T11:08:20;2.30;61.50
70734;DHT22;58320;48.804;9.252;2024-01-15T11:10:48;2.30;62.20
70734;DHT22;58320;48.804;9.252;2024-01-15T11:13:40;2.20;62.70
70734;DHT22;58320;48.804;9.252;2024-01-15T11:16:08;2.20;62.60
70734;DHT22;58320;48.804;9.252;2024-01-15T11:18:37;2.10;62.80
70734;DHT22;58320;48.804;9.252;2024-01-15T11:21:22;2.20;62.90
70734;DHT22;58320;48.804;9.252;2024-01-15T11:26:35;2.00;64.90
70734;DHT22;58320;48.804;9.252;2024-01-15T11:32:08;1.80;70.00
70734;DHT22;58320;48.804;9.252;2024-01-15T11:34:57;1.60;72.40
70734;DHT22;58320;48.804;9.252;2024-01-15T11:37:26;1.50;71.90
70734;DHT22;58320;48.804;9.252;2024-01-15T11:39:53;1.60;71.70
70734;DHT22;58320;48.804;9.252;2024-01-15T11:42:21;1.70;70.60
70734;DHT22;58320;48.804;9.252;2024-01-15T11:44:47;1.80;71.00
70734;DHT22;58320;48.804;9.252;2024-01-15T11:47:14;1.70;71.40
70734;DHT22;58320;48.804;9.252;2024-01-15T11:50:02;1.70;72.00
70734;DHT22;58320;48.804;9.252;2024-01-15T11:52:35;1.70;71.20
70734;DHT22;58320;48.804;9.252;2024-01-15T11:55:47;1.60;71.80
70734;DHT22;58320;48.804;9.252;2024-01-15T11:58:02;1.50;72.10
70734;DHT22;58320;48.804;9.252;2024-01-15T12:00:33;1.50;72.70
70734;DHT22;58320;48.804;9.252;2024-01-15T12:02:59;1.60;73.40
70734;DHT22;58320;48.804;9.252;2024-01-15T12:05:24;1.50;73.30
70734;DHT22;58320;48.804;9.252;2024-01-15T12:07:50;1.50;73.70
70734;DHT22;58320;48.804;9.252;2024-01-15T12:10:20;1.50;74.60
70734;DHT22;58320;48.804;9.252;2024-01-15T12:12:59;1.40;76.30
70734;DHT22;58320;48.804;9.252;2024-01-15T12:15:27;1.30;77.00
70734;DHT22;58320;48.804;9.252;2024-01-15T12:17:56;1.40;76.70
70734;DHT22;58320;48.804;9.252;2024-01-15T12:20:26;1.40;75.40
70734;DHT22;58320;48.804;9.252;2024-01-15T12:22:53;1.50;74.00
70734;DHT22;58320;48.804;9.252;2024-01-15T12:25:24;1.50;74.10
70734;DHT22;58320;48.804;9.252;2024-01-15T12:27:52;1.50;74.70
70734;DHT22;58320;48.804;9.252;2024-01-15T12:30:18;1.40;75.40
70734;DHT22;58320;48.804;9.252;2024-01-15T12:32:45;1.40;76.40
70734;DHT22;58320;48.804;9.252;2024-01-15T12:35:12;1.40;77.30
70734;DHT22;58320;48.804;9.252;2024-01-15T12:37:40;1.30;77.90
70734;DHT22;58320;48.804;9.252;2024-01-15T12:40:07;1.30;78.60
70734;DHT22;58320;48.804;9.252;2024-01-15T12:42:41;1.30;78.80
70734;DHT22;58320;48.804;9.252;2024-01-15T12:45:09;1.30;79.70
70734;DHT22;58320;48.804;9.252;2024-01-15T12:47:36;1.20;80.70
70734;DHT22;58320;48.804;9.252;2024-01-15T12:50:02;1.20;81.20
70734;DHT22;58320;48.804;9.252;2024-01-15T12:52:33;1.20;82.10
70734;DHT22;58320;48.804;9.252;2024-01-15T12:55:00;1.10;83.00
70734;DHT22;58320;48.804;9.252;2024-01-15T12:57:25;1.10;84.10
70734;DHT22;58320;48.804;9.252;2024-01-15T12:59:54;0.90;85.50
70734;DHT22;58320;48.804;9.252;2024-01-15T13:02:20;0.90;86.10
70734;DHT22;58320;48.804;9.252;2024-01-15T13:04:45;0.90;87.00
70734;DHT22;58320;48.804;9.252;2024-01-15T13:07:11;0.80;87.70
70734;DHT22;58320;48.804;9.252;2024-01-15T13:09:37;0.80;88.70
70734;DHT22;58320;48.804;9.252;2024-01-15T13:12:03;0.80;88.50
70734;DHT22;58320;48.804;9.252;2024-01-15T13:14:29;0.80;88.50
70734;DHT22;58320;48.804;9.252;2024-01-15T13:16:55;0.90;88.70
70734;DHT22;58320;48.804;9.252;2024-01-15T13:19:21;0.90;88.10
70734;DHT22;58320;48.804;9.252;2024-01-15T13:21:48;0.90;88.00
70734;DHT22;58320;48.804;9.252;2024-01-15T13:24:15;0.90;88.30
70734;DHT22;58320;48.804;9.252;2024-01-15T13:26:41;0.90;88.20
70734;DHT22;58320;48.804;9.252;2024-01-15T13:29:06;0.80;88.60
70734;DHT22;58320;48.804;9.252;2024-01-15T13:31:33;0.80;88.50
70734;DHT22;58320;48.804;9.252;2024-01-15T13:33:59;0.80;88.50
70734;DHT22;58320;48.804;9.252;2024-01-15T13:36:26;0.80;88.80
70734;DHT22;58320;48.804;9.252;2024-01-15T13:38:53;0.80;89.10
70734;DHT22;58320;48.804;9.252;2024-01-15T13:41:20;0.80;89.00
70734;DHT22;58320;48.804;9.252;2024-01-15T13:44:04;0.80;89.10
70734;DHT22;58320;48.804;9.252;2024-01-15T13:46:30;0.80;89.30
70734;DHT22;58320;48.804;9.252;2024-01-15T13:48:56;0.80;89.10
70734;DHT22;58320;48.804;9.252;2024-01-15T13:51:22;0.80;89.60
70734;DHT22;58320;48.804;9.252;2024-01-15T13:53:49;0.80;89.60
70734;DHT22;58320;48.804;9.252;2024-01-15T13:56:15;0.80;89.60
70734;DHT22;58320;48.804;9.252;2024-01-15T13:58:41;0.80;89.90
70734;DHT22;58320;48.804;9.252;2024-01-15T14:01:08;0.80;90.20
70734;DHT22;58320;48.804;9.252;2024-01-15T14:03:34;0.80;90.30
70734;DHT22;58320;48.804;9.252;2024-01-15T14:06:00;0.80;90.40
70734;DHT22;58320;48.804;9.252;2024-01-15T14:08:28;0.70;90.80
70734;DHT22;58320;48.804;9.252;2024-01-15T14:10:54;0.80;90.60
70734;DHT22;58320;48.804;9.252;2024-01-15T14:13:21;0.80;90.60
70734;DHT22;58320;48.804;9.252;2024-01-15T14:15:47;0.80;90.60
70734;DHT22;58320;48.804;9.252;2024-01-15T14:18:16;0.80;90.40
70734;DHT22;58320;48.804;9.252;2024-01-15T14:20:42;0.90;90.30
70734;DHT22;58320;48.804;9.252;2024-01-15T14:23:08;0.90;90.20
70734;DHT22;58320;48.804;9.252;2024-01-15T14:25:35;0.90;89.80
70734;DHT22;58320;48.804;9.252;2024-01-15T14:28:01;0.90;89.70
70734;DHT22;58320;48.804;9.252;2024-01-15T14:30:27;0.90;89.80
70734;DHT22;58320;48.804;9.252;2024-01-15T14:32:52;0.90;89.50
70734;DHT22;58320;48.804;9.252;2024-01-15T14:35:18;0.90;88.80
70734;DHT22;58320;48.804;9.252;2024-01-15T14:37:44;0.90;88.80
70734;DHT22;58320;48.804;9.252;2024-01-15T14:40:11;0.90;88.70
70734;DHT22;58320;48.804;9.252;2024-01-15T14:42:37;0.90;88.80
70734;DHT22;58320;48.804;9.252;2024-01-15T14:45:04;0.90;89.40
70734;DHT22;58320;48.804;9.252;2024-01-15T14:47:40;0.80;90.20
70734;DHT22;58320;48.804;9.252;2024-01-15T14:50:07;0.80;90.80
70734;DHT22;58320;48.804;9.252;2024-01-15T14:52:34;0.70;90.10
70734;DHT22;58320;48.804;9.252;2024-01-15T14:55:00;0.60;89.70
70734;DHT22;58320;48.804;9.252;2024-01-15T14:57:26;0.50;90.50
70734;DHT22;58320;48.804;9.252;2024-01-15T14:59:52;0.40;91.10
70734;DHT22;58320;48.804;9.252;2024-01-15T15:02:18;0.30;92.00
70734;DHT22;58320;48.804;9.252;2024-01-15T15:04:45;0.30;92.80
70734;DHT22;58320;48.804;9.252;2024-01-15T15:07:10;0.20;93.40
70734;DHT22;58320;48.804;9.252;2024-01-15T15:09:36;0.20;94.00
70734;DHT22;58320;48.804;9.252;2024-01-15T15:12:05;0.10;94.40
70734;DHT22;58320;48.804;9.252;2024-01-15T15:14:32;0.10;94.60
70734;DHT22;58320;48.804;9.252;2024-01-15T15:17:06;0.10;94.60
70734;DHT22;58320;48.804;9.252;2024-01-15T15:19:32;0.10;94.50
70734;DHT22;58320;48.804;9.252;2024-01-15T15:21:58;0.10;94.70
70734;DHT22;58320;48.804;9.252;2024-01-15T15:24:25;0.10;94.80
70734;DHT22;58320;48.804;9.252;2024-01-15T15:26:51;0.00;94.90
70734;DHT22;58320;48.804;9.252;2024-01-15T15:29:16;0.10;94.50
70734;DHT22;58320;48.804;9.252;2024-01-15T15:31:43;0.00;93.90
70734;DHT22;58320;48.804;9.252;2024-01-15T15:34:08;0.00;92.80
70734;DHT22;58320;48.804;9.252;2024-01-15T15:36:35;0.10;92.10
70734;DHT22;58320;48.804;9.252;2024-01-15T15:39:00;0.10;91.50
70734;DHT22;58320;48.804;9.252;2024-01-15T15:41:26;0.10;91.20
70734;DHT22;58320;48.804;9.252;2024-01-15T15:43:53;0.10;90.80
70734;DHT22;58320;48.804;9.252;2024-01-15T15:46:19;0.10;89.70